createdAt,value
2022-10-17T00:00:49.887Z,100655.53
2022-10-17T00:03:17.020Z,100655.53
2022-10-17T00:05:46.452Z,100666.50
2022-10-17T00:08:15.851Z,100663.69
2022-10-17T00:10:43.261Z,100661.00
2022-10-17T00:13:11.343Z,100663.69
2022-10-17T00:15:38.336Z,100653.75
2022-10-17T00:18:05.265Z,100655.13
2022-10-17T00:20:35.624Z,100649.63
2022-10-17T00:23:02.547Z,100638.44
2022-10-17T00:25:29.555Z,100644.59
2022-10-17T00:27:56.475Z,100641.81
2022-10-17T00:30:23.379Z,100623.84
2022-10-17T00:32:53.369Z,100630.88
2022-10-17T00:35:20.790Z,100624.13
2022-10-17T00:37:48.775Z,100629.44
2022-10-17T00:40:15.877Z,100615.16
2022-10-17T00:42:42.712Z,100615.28
2022-10-17T00:45:24.312Z,100615.44
2022-10-17T00:48:00.181Z,100618.13
2022-10-17T00:50:28.315Z,100608.44
2022-10-17T00:53:01.652Z,100608.97
2022-10-17T00:55:33.265Z,100605.34
2022-10-17T00:58:03.374Z,100600.44
2022-10-17T01:00:30.912Z,100601.25
2022-10-17T01:02:58.525Z,100595.66
2022-10-17T01:05:25.570Z,100582.63
2022-10-17T01:07:54.295Z,100584.59
2022-10-17T01:13:08.700Z,100580.97
2022-10-17T01:15:35.607Z,100579.13
2022-10-17T01:18:29.526Z,100577.47
2022-10-17T01:21:20.069Z,100566.38
2022-10-17T01:24:18.829Z,100571.44
2022-10-17T01:26:58.285Z,100563.28
2022-10-17T01:29:28.353Z,100554.59
2022-10-17T01:32:00.244Z,100545.06
2022-10-17T01:34:44.662Z,100544.38
2022-10-17T01:37:44.355Z,100544.63
2022-10-17T01:40:22.487Z,100533.44
2022-10-17T01:42:58.967Z,100533.88
2022-10-17T01:45:33.812Z,100532.72
2022-10-17T01:48:15.441Z,100540.44
2022-10-17T01:50:48.519Z,100534.69
2022-10-17T01:53:22.219Z,100532.44
2022-10-17T01:55:51.481Z,100528.25
2022-10-17T01:58:43.634Z,100517.34
2022-10-17T02:01:13.027Z,100515.34
2022-10-17T02:03:43.791Z,100514.09
2022-10-17T02:06:10.931Z,100512.00
2022-10-17T02:08:47.666Z,100514.94
2022-10-17T02:11:21.620Z,100509.03
2022-10-17T02:16:56.764Z,100525.44
2022-10-17T02:19:42.067Z,100523.63
2022-10-17T02:22:40.186Z,100519.69
2022-10-17T02:25:49.181Z,100510.88
2022-10-17T02:28:24.529Z,100519.28
2022-10-17T02:31:07.034Z,100505.81
2022-10-17T02:33:42.438Z,100505.53
2022-10-17T02:36:15.369Z,100506.81
2022-10-17T02:38:44.323Z,100514.25
2022-10-17T02:41:17.218Z,100506.38
2022-10-17T02:43:47.057Z,100501.50
2022-10-17T02:46:21.350Z,100503.88
2022-10-17T02:49:11.540Z,100503.88
2022-10-17T02:51:44.366Z,100504.88
2022-10-17T02:54:34.536Z,100487.91
2022-10-17T02:57:09.939Z,100490.56
2022-10-17T02:59:38.546Z,100486.34
2022-10-17T03:02:06.981Z,100484.81
2022-10-17T03:04:34.768Z,100480.19
2022-10-17T03:07:01.776Z,100480.03
2022-10-17T03:09:28.970Z,100480.59
2022-10-17T03:11:56.030Z,100473.59
2022-10-17T03:14:23.186Z,100478.38
2022-10-17T03:16:50.179Z,100474.16
2022-10-17T03:19:20.461Z,100469.13
2022-10-17T03:21:47.959Z,100456.78
2022-10-17T03:24:14.975Z,100452.88
2022-10-17T03:26:41.925Z,100449.78
2022-10-17T03:29:09.017Z,100445.03
2022-10-17T03:31:36.580Z,100436.34
2022-10-17T03:34:05.756Z,100423.72
2022-10-17T03:36:32.800Z,100425.00
2022-10-17T03:39:01.200Z,100407.09
2022-10-17T03:41:29.297Z,100432.28
2022-10-17T03:43:56.214Z,100410.59
2022-10-17T03:46:24.116Z,100425.72
2022-10-17T03:48:51.340Z,100406.66
2022-10-17T03:51:18.435Z,100405.94
2022-10-17T03:53:50.628Z,100413.09
2022-10-17T03:56:20.479Z,100418.28
2022-10-17T03:58:56.232Z,100412.81
2022-10-17T04:01:24.325Z,100411.97
2022-10-17T04:03:56.492Z,100423.19
2022-10-17T04:06:24.324Z,100391.53
2022-10-17T04:08:51.412Z,100399.09
2022-10-17T04:11:28.211Z,100390.69
2022-10-17T04:13:59.896Z,100401.06
2022-10-17T04:16:28.735Z,100398.56
2022-10-17T04:19:00.521Z,100392.94
2022-10-17T04:21:31.339Z,100403.00
2022-10-17T04:24:03.710Z,100400.22
2022-10-17T04:27:00.147Z,100412.41
2022-10-17T04:29:29.964Z,100404.97
2022-10-17T04:32:11.871Z,100388.16
2022-10-17T04:34:57.423Z,100377.22
2022-10-17T04:37:24.473Z,100375.28
2022-10-17T04:39:53.875Z,100384.69
2022-10-17T04:42:20.955Z,100379.19
2022-10-17T04:44:49.424Z,100375.16
2022-10-17T04:47:19.107Z,100370.81
2022-10-17T04:49:46.636Z,100369.97
2022-10-17T04:52:16.163Z,100362.97
2022-10-17T04:54:44.972Z,100361.69
2022-10-17T04:57:16.874Z,100364.22
2022-10-17T04:59:51.855Z,100357.31
2022-10-17T05:02:27.556Z,100358.44
2022-10-17T05:04:55.437Z,100370.47
2022-10-17T05:07:22.455Z,100353.78
2022-10-17T05:09:52.176Z,100356.47
2022-10-17T05:12:19.492Z,100361.47
2022-10-17T05:14:50.121Z,100356.97
2022-10-17T05:17:17.040Z,100351.09
2022-10-17T05:19:44.729Z,100358.63
2022-10-17T05:22:14.122Z,100359.75
2022-10-17T05:24:44.965Z,100353.47
2022-10-17T05:27:13.503Z,100341.50
2022-10-17T05:29:40.669Z,100343.13
2022-10-17T05:32:17.955Z,100309.75
2022-10-17T05:34:45.280Z,100317.03
2022-10-17T05:37:12.261Z,100331.50
2022-10-17T05:39:42.056Z,100337.75
2022-10-17T05:42:09.846Z,100339.56
2022-10-17T05:44:46.181Z,100327.72
2022-10-17T05:47:21.746Z,100327.75
2022-10-17T05:49:52.266Z,100312.88
2022-10-17T05:52:26.521Z,100304.69
2022-10-17T05:55:06.210Z,100298.97
2022-10-17T05:57:33.498Z,100282.22
2022-10-17T06:00:01.326Z,100298.31
2022-10-17T06:02:41.886Z,100288.25
2022-10-17T06:05:10.610Z,100295.56
2022-10-17T06:07:37.953Z,100292.44
2022-10-17T06:10:07.193Z,100306.22
2022-10-17T06:12:34.703Z,100296.72
2022-10-17T06:15:02.125Z,100286.06
2022-10-17T06:17:30.983Z,100285.22
2022-10-17T06:19:58.327Z,100282.41
2022-10-17T06:22:25.383Z,100291.53
2022-10-17T06:24:55.189Z,100286.19
2022-10-17T06:27:24.862Z,100283.41
2022-10-17T06:29:52.199Z,100285.16
2022-10-17T06:32:19.206Z,100290.09
2022-10-17T06:34:47.334Z,100294.91
2022-10-17T06:37:15.349Z,100289.16
2022-10-17T06:39:43.373Z,100296.69
2022-10-17T06:42:13.199Z,100293.50
2022-10-17T06:45:09.638Z,100289.22
2022-10-17T06:47:50.703Z,100284.34
2022-10-17T06:51:04.726Z,100272.56
2022-10-17T06:53:40.585Z,100250.59
2022-10-17T06:56:26.450Z,100258.59
2022-10-17T06:59:09.994Z,100250.75
2022-10-17T07:01:40.701Z,100259.44
2022-10-17T07:04:13.734Z,100264.59
2022-10-17T07:06:41.209Z,100259.00
2022-10-17T07:09:20.627Z,100258.09
2022-10-17T07:11:47.696Z,100253.78
2022-10-17T07:14:18.180Z,100260.50
2022-10-17T07:16:46.809Z,100256.50
2022-10-17T07:19:18.353Z,100257.50
2022-10-17T07:21:45.625Z,100253.47
2022-10-17T07:24:13.322Z,100255.94
2022-10-17T07:26:44.914Z,100250.59
2022-10-17T07:29:12.196Z,100235.69
2022-10-17T07:31:45.671Z,100238.66
2022-10-17T07:34:13.217Z,100241.03
2022-10-17T07:36:41.668Z,100223.91
2022-10-17T07:39:09.358Z,100233.41
2022-10-17T07:41:37.844Z,100225.22
2022-10-17T07:44:05.319Z,100231.28
2022-10-17T07:46:36.968Z,100231.91
2022-10-17T07:49:05.494Z,100223.03
2022-10-17T07:51:34.098Z,100235.72
2022-10-17T07:54:01.121Z,100242.19
2022-10-17T07:56:29.701Z,100245.56
2022-10-17T08:01:29.620Z,100221.81
2022-10-17T08:03:56.587Z,100225.78
2022-10-17T08:06:23.513Z,100240.34
2022-10-17T08:08:52.972Z,100229.31
2022-10-17T08:11:19.947Z,100218.69
2022-10-17T08:13:46.799Z,100222.31
2022-10-17T08:16:14.208Z,100211.63
2022-10-17T08:18:42.687Z,100205.97
2022-10-17T08:21:13.150Z,100212.53
2022-10-17T08:23:40.562Z,100191.16
2022-10-17T08:26:10.770Z,100202.75
2022-10-17T08:28:39.990Z,100205.94
2022-10-17T08:31:13.314Z,100205.91
2022-10-17T08:33:41.939Z,100196.59
2022-10-17T08:36:09.923Z,100213.97
2022-10-17T08:38:43.137Z,100215.44
2022-10-17T08:41:22.278Z,100214.28
2022-10-17T08:44:19.241Z,100226.81
2022-10-17T08:47:21.248Z,100216.13
2022-10-17T08:49:59.831Z,100209.97
2022-10-17T08:52:54.879Z,100216.00
2022-10-17T08:55:31.619Z,100214.09
2022-10-17T08:57:58.708Z,100214.47
2022-10-17T09:00:28.643Z,100220.81
2022-10-17T09:03:49.774Z,100237.13
2022-10-17T09:06:19.376Z,100221.78
2022-10-17T09:09:14.099Z,100218.47
2022-10-17T09:11:48.895Z,100221.09
2022-10-17T09:14:44.984Z,100220.66
2022-10-17T09:17:51.970Z,100209.41
2022-10-17T09:20:31.092Z,100206.50
2022-10-17T09:23:06.982Z,100213.66
2022-10-17T09:25:43.026Z,100207.91
2022-10-17T09:28:09.956Z,100212.22
2022-10-17T09:30:47.442Z,100207.94
2022-10-17T09:33:28.786Z,100227.38
2022-10-17T09:36:08.991Z,100228.88
2022-10-17T09:38:49.584Z,100227.09
2022-10-17T09:41:57.505Z,100225.63
2022-10-17T09:44:25.131Z,100213.53
2022-10-17T09:47:19.825Z,100195.84
2022-10-17T09:49:48.723Z,100177.81
2022-10-17T09:52:17.585Z,100192.19
2022-10-17T09:54:48.299Z,100192.56
2022-10-17T09:57:17.173Z,100185.69
2022-10-17T10:00:04.824Z,100183.16
2022-10-17T10:02:41.010Z,100192.31
2022-10-17T10:05:25.950Z,100176.53
2022-10-17T10:08:05.994Z,100169.88
2022-10-17T10:10:33.459Z,100159.94
2022-10-17T10:13:15.877Z,100160.81
2022-10-17T10:15:46.104Z,100150.69
2022-10-17T10:18:34.853Z,100149.34
2022-10-17T10:21:20.666Z,100150.66
2022-10-17T10:23:59.825Z,100142.84
2022-10-17T10:26:32.018Z,100146.28
2022-10-17T10:29:03.347Z,100137.94
2022-10-17T10:31:40.134Z,100124.22
2022-10-17T10:34:24.223Z,100131.78
2022-10-17T10:36:53.824Z,100117.03
2022-10-17T10:39:42.285Z,100125.94
2022-10-17T10:42:21.431Z,100116.13
2022-10-17T10:44:49.877Z,100124.81
2022-10-17T10:47:23.802Z,100120.91
2022-10-17T10:49:53.824Z,100122.75
2022-10-17T10:52:38.184Z,100136.47
2022-10-17T10:55:36.720Z,100134.63
2022-10-17T10:58:36.807Z,100122.94
2022-10-17T11:01:15.699Z,100111.25
2022-10-17T11:04:02.884Z,100106.56
2022-10-17T11:06:38.041Z,100099.19
2022-10-17T11:09:05.061Z,100096.19
2022-10-17T11:11:42.693Z,100096.56
2022-10-17T11:14:23.620Z,100100.00
2022-10-17T11:16:58.279Z,100089.16
2022-10-17T11:19:41.560Z,100089.19
2022-10-17T11:22:15.381Z,100087.16
2022-10-17T11:24:59.751Z,100091.72
2022-10-17T11:27:30.552Z,100091.56
2022-10-17T11:29:58.701Z,100093.75
2022-10-17T11:32:38.710Z,100090.94
2022-10-17T11:35:44.508Z,100080.94
2022-10-17T11:38:52.968Z,100091.31
2022-10-17T11:41:29.868Z,100097.81
2022-10-17T11:44:27.375Z,100094.31
2022-10-17T11:46:59.887Z,100102.31
2022-10-17T11:49:41.928Z,100098.50
2022-10-17T11:52:31.619Z,100085.78
2022-10-17T11:55:16.945Z,100071.22
2022-10-17T11:57:56.155Z,100069.22
2022-10-17T12:00:39.313Z,100064.34
2022-10-17T12:03:52.811Z,100057.84
2022-10-17T12:06:37.083Z,100048.13
2022-10-17T12:09:30.191Z,100047.94
2022-10-17T12:11:58.228Z,100041.59
2022-10-17T12:14:47.005Z,100037.00
2022-10-17T12:17:39.004Z,100030.72
2022-10-17T12:20:21.680Z,100044.75
2022-10-17T12:22:51.616Z,100048.09
2022-10-17T12:25:24.619Z,100035.44
2022-10-17T12:28:02.643Z,100036.81
2022-10-17T12:30:30.404Z,100033.63
2022-10-17T12:33:08.274Z,100014.09
2022-10-17T12:35:38.399Z,100027.97
2022-10-17T12:38:23.025Z,100036.66
2022-10-17T12:40:53.680Z,100035.44
2022-10-17T12:43:30.096Z,100039.63
2022-10-17T12:46:04.255Z,100046.13
2022-10-17T12:48:34.350Z,100060.19
2022-10-17T12:53:59.209Z,100055.53
2022-10-17T12:56:47.951Z,100061.16
2022-10-17T12:59:22.704Z,100050.81
2022-10-17T13:01:55.285Z,100063.81
2022-10-17T13:04:22.814Z,100080.50
2022-10-17T13:06:54.719Z,100091.06
2022-10-17T13:09:38.001Z,100088.91
2022-10-17T13:12:14.289Z,100100.25
2022-10-17T13:14:43.766Z,100105.25
2022-10-17T13:17:30.874Z,100125.31
2022-10-17T13:19:58.654Z,100136.38
2022-10-17T13:22:28.957Z,100140.41
2022-10-17T13:25:16.597Z,100143.41
2022-10-17T13:27:44.510Z,100151.44
2022-10-17T13:30:33.873Z,100152.09
2022-10-17T13:33:18.741Z,100139.38
2022-10-17T13:36:00.095Z,100140.91
2022-10-17T13:38:32.728Z,100130.38
2022-10-17T13:41:22.977Z,100126.72
2022-10-17T13:43:50.707Z,100128.06
2022-10-17T13:46:39.337Z,100121.03
2022-10-17T13:49:34.187Z,100128.06
2022-10-17T13:52:04.238Z,100115.53
2022-10-17T13:54:43.105Z,100118.53
2022-10-17T13:57:26.690Z,100117.72
2022-10-17T14:00:21.414Z,100113.34
2022-10-17T14:02:49.104Z,100099.66
2022-10-17T14:05:19.883Z,100089.16
2022-10-17T14:08:12.087Z,100081.97
2022-10-17T14:10:42.661Z,100081.63
2022-10-17T14:13:22.963Z,100085.63
2022-10-17T14:15:50.833Z,100084.97
2022-10-17T14:18:24.236Z,100062.75
2022-10-17T14:23:44.451Z,100071.72
2022-10-17T14:26:22.185Z,100065.38
2022-10-17T14:29:39.067Z,100066.88
2022-10-17T14:32:10.998Z,100069.88
2022-10-17T14:34:43.245Z,100074.03
2022-10-17T14:37:13.391Z,100076.84
2022-10-17T14:39:55.844Z,100079.53
2022-10-17T14:42:26.726Z,100076.53
2022-10-17T14:44:57.710Z,100078.19
2022-10-17T14:47:42.671Z,100071.97
2022-10-17T14:50:28.910Z,100066.78
2022-10-17T14:53:05.624Z,100061.25
2022-10-17T14:55:36.047Z,100069.59
2022-10-17T14:58:16.952Z,100083.25
2022-10-17T15:00:44.497Z,100074.38
2022-10-17T15:03:11.641Z,100071.72
2022-10-17T15:05:40.147Z,100067.38
2022-10-17T15:08:18.659Z,100076.41
2022-10-17T15:10:47.320Z,100061.41
2022-10-17T15:13:33.552Z,100071.38
2022-10-17T15:16:02.013Z,100080.41
2022-10-17T15:18:29.171Z,100092.72
2022-10-17T15:21:04.836Z,100101.44
2022-10-17T15:23:40.034Z,100087.25
2022-10-17T15:26:24.137Z,100080.72
2022-10-17T15:28:52.066Z,100092.41
2022-10-17T15:31:24.098Z,100103.72
2022-10-17T15:33:51.193Z,100089.56
2022-10-17T15:36:27.153Z,100099.59
2022-10-17T15:38:56.797Z,100098.78
2022-10-17T15:41:26.210Z,100088.41
2022-10-17T15:43:53.354Z,100098.44
2022-10-17T15:46:24.148Z,100096.47
2022-10-17T15:48:51.921Z,100096.47
2022-10-17T15:51:19.659Z,100102.81
2022-10-17T15:53:47.066Z,100110.19
2022-10-17T15:56:28.815Z,100119.25
2022-10-17T15:58:55.851Z,100117.13
2022-10-17T16:01:28.451Z,100113.13
2022-10-17T16:03:56.095Z,100100.88
2022-10-17T16:06:24.344Z,100099.41
2022-10-17T16:08:52.043Z,100100.94
2022-10-17T16:11:41.649Z,100105.28
2022-10-17T16:14:18.229Z,100103.44
2022-10-17T16:16:46.421Z,100099.59
2022-10-17T16:19:13.491Z,100105.25
2022-10-17T16:21:41.915Z,100103.94
2022-10-17T16:24:12.661Z,100103.94
2022-10-17T16:26:41.397Z,100110.66
2022-10-17T16:29:10.188Z,100105.16
2022-10-17T16:31:41.971Z,100117.50
2022-10-17T16:34:13.795Z,100116.69
2022-10-17T16:36:41.733Z,100103.66
2022-10-17T16:39:11.368Z,100111.69
2022-10-17T16:41:39.430Z,100108.34
2022-10-17T16:44:08.775Z,100116.69
2022-10-17T16:46:38.665Z,100116.53
2022-10-17T16:49:06.722Z,100122.72
2022-10-17T16:51:37.013Z,100118.22
2022-10-17T16:54:04.817Z,100124.38
2022-10-17T16:56:33.034Z,100121.19
2022-10-17T16:59:01.058Z,100106.53
2022-10-17T17:01:31.643Z,100127.06
2022-10-17T17:03:59.078Z,100112.84
2022-10-17T17:06:35.690Z,100120.19
2022-10-17T17:09:03.105Z,100113.88
2022-10-17T17:11:30.170Z,100127.41
2022-10-17T17:13:58.166Z,100139.41
2022-10-17T17:16:27.135Z,100132.28
2022-10-17T17:18:59.251Z,100132.44
2022-10-17T17:21:27.953Z,100127.91
2022-10-17T17:23:58.559Z,100127.44
2022-10-17T17:26:26.887Z,100125.09
2022-10-17T17:28:54.389Z,100126.06
2022-10-17T17:31:23.999Z,100108.19
2022-10-17T17:33:52.008Z,100115.72
2022-10-17T17:36:23.900Z,100109.69
2022-10-17T17:38:53.698Z,100119.75
2022-10-17T17:41:21.679Z,100120.56
2022-10-17T17:43:49.567Z,100125.22
2022-10-17T17:46:23.053Z,100114.88
2022-10-17T17:48:51.249Z,100111.03
2022-10-17T17:51:24.261Z,100123.06
2022-10-17T17:53:54.611Z,100127.38
2022-10-17T17:56:30.503Z,100119.03
2022-10-17T17:59:00.585Z,100126.06
2022-10-17T18:01:36.548Z,100128.06
2022-10-17T18:04:05.311Z,100118.72
2022-10-17T18:06:32.189Z,100115.06
2022-10-17T18:08:59.347Z,100113.91
2022-10-17T18:11:27.520Z,100118.91
2022-10-17T18:14:08.570Z,100114.06
2022-10-17T18:16:37.615Z,100112.34
2022-10-17T18:19:07.513Z,100114.06
2022-10-17T18:21:38.077Z,100122.03
2022-10-17T18:24:06.450Z,100121.56
2022-10-17T18:26:33.673Z,100123.22
2022-10-17T18:29:00.764Z,100124.19
2022-10-17T18:31:35.781Z,100126.22
2022-10-17T18:34:05.212Z,100132.41
2022-10-17T18:36:37.723Z,100144.31
2022-10-17T18:39:05.817Z,100135.59
2022-10-17T18:41:33.961Z,100136.97
2022-10-17T18:44:05.382Z,100143.78
2022-10-17T18:46:41.064Z,100143.09
2022-10-17T18:49:13.748Z,100142.44
2022-10-17T18:51:43.265Z,100142.91
2022-10-17T18:54:20.692Z,100160.63
2022-10-17T18:56:50.031Z,100156.94
2022-10-17T18:59:18.918Z,100159.13
2022-10-17T19:01:46.610Z,100159.81
2022-10-17T19:04:13.778Z,100158.13
2022-10-17T19:06:41.387Z,100160.13
2022-10-17T19:09:10.525Z,100155.81
2022-10-17T19:11:42.283Z,100160.81
2022-10-17T19:14:14.188Z,100154.63
2022-10-17T19:16:49.226Z,100139.13
2022-10-17T19:19:23.388Z,100162.50
2022-10-17T19:21:51.324Z,100147.13
2022-10-17T19:24:24.684Z,100154.16
2022-10-17T19:26:56.888Z,100154.66
2022-10-17T19:29:31.213Z,100160.50
2022-10-17T19:31:58.448Z,100156.34
2022-10-17T19:34:25.508Z,100156.34
2022-10-17T19:36:52.867Z,100159.03
2022-10-17T19:39:22.982Z,100160.50
2022-10-17T19:41:50.133Z,100155.47
2022-10-17T19:44:18.490Z,100167.34
2022-10-17T19:46:47.140Z,100165.66
2022-10-17T19:49:18.024Z,100164.81
2022-10-17T19:51:45.283Z,100151.47
2022-10-17T19:54:18.435Z,100158.47
2022-10-17T19:56:48.582Z,100145.44
2022-10-17T19:59:18.838Z,100146.09
2022-10-17T20:01:46.411Z,100155.81
2022-10-17T20:04:13.528Z,100153.28
2022-10-17T20:06:41.388Z,100159.13
2022-10-17T20:09:13.868Z,100161.16
2022-10-17T20:11:43.871Z,100156.13
2022-10-17T20:14:10.983Z,100161.47
2022-10-17T20:16:38.065Z,100156.28
2022-10-17T20:19:07.942Z,100156.13
2022-10-17T20:21:36.681Z,100161.81
2022-10-17T20:24:08.883Z,100169.16
2022-10-17T20:26:38.980Z,100160.81
2022-10-17T20:29:11.633Z,100162.28
2022-10-17T20:31:40.806Z,100162.13
2022-10-17T20:34:13.271Z,100178.66
2022-10-17T20:36:40.681Z,100170.78
2022-10-17T20:39:08.282Z,100174.66
2022-10-17T20:41:35.540Z,100179.50
2022-10-17T20:44:02.697Z,100173.97
2022-10-17T20:46:36.840Z,100168.47
2022-10-17T20:49:07.035Z,100168.28
2022-10-17T20:51:35.399Z,100175.16
2022-10-17T20:54:03.170Z,100176.31
2022-10-17T21:01:11.074Z,100178.47
2022-10-17T21:03:42.377Z,100179.31
2022-10-17T21:06:12.976Z,100174.16
2022-10-17T21:08:40.259Z,100158.59
2022-10-17T21:11:13.621Z,100158.44
2022-10-17T21:13:41.408Z,100178.16
2022-10-17T21:16:14.181Z,100175.81
2022-10-17T21:18:41.451Z,100178.66
2022-10-17T21:21:12.973Z,100158.25
2022-10-17T21:23:41.525Z,100162.44
2022-10-17T21:26:10.178Z,100159.78
2022-10-17T21:28:37.656Z,100164.78
2022-10-17T21:31:20.901Z,100159.78
2022-10-17T21:33:53.330Z,100154.44
2022-10-17T21:36:21.476Z,100146.59
2022-10-17T21:38:50.050Z,100142.06
2022-10-17T21:41:20.899Z,100146.59
2022-10-17T21:43:52.065Z,100146.59
2022-10-17T21:46:19.925Z,100157.47
2022-10-17T21:48:48.201Z,100155.78
2022-10-17T21:51:17.435Z,100152.09
2022-10-17T21:53:44.602Z,100157.13
2022-10-17T21:56:14.541Z,100165.16
2022-10-17T21:58:42.594Z,100145.94
2022-10-17T22:01:11.122Z,100151.28
2022-10-17T22:03:44.100Z,100152.78
2022-10-17T22:06:38.776Z,100142.56
2022-10-17T22:09:07.022Z,100146.75
2022-10-17T22:11:35.630Z,100131.75
2022-10-17T22:14:05.605Z,100135.25
2022-10-17T22:16:33.768Z,100125.72
2022-10-17T22:19:06.631Z,100132.25
2022-10-17T22:21:36.134Z,100130.41
2022-10-17T22:24:06.616Z,100130.56
2022-10-17T22:26:35.378Z,100136.75
2022-10-17T22:29:03.179Z,100126.56
2022-10-17T22:31:30.265Z,100130.22
2022-10-17T22:33:57.483Z,100132.06
2022-10-17T22:36:24.533Z,100130.41
2022-10-17T22:38:51.658Z,100128.06
2022-10-17T22:41:19.031Z,100133.41
2022-10-17T22:43:46.080Z,100132.75
2022-10-17T22:46:16.016Z,100121.22
2022-10-17T22:48:43.707Z,100134.41
2022-10-17T22:51:11.047Z,100141.44
2022-10-17T22:53:38.125Z,100121.88
2022-10-17T22:56:12.362Z,100130.56
2022-10-17T22:58:39.417Z,100117.06
2022-10-17T23:01:08.232Z,100129.06
2022-10-17T23:03:35.396Z,100121.69
2022-10-17T23:06:03.021Z,100121.69
2022-10-17T23:08:30.673Z,100125.88
2022-10-17T23:10:58.024Z,100115.19
2022-10-17T23:13:25.125Z,100114.72
2022-10-17T23:15:56.956Z,100121.03
2022-10-17T23:18:25.631Z,100116.72
2022-10-17T23:20:55.982Z,100096.66
2022-10-17T23:23:23.170Z,100098.31
2022-10-17T23:25:50.616Z,100113.69
2022-10-17T23:28:18.167Z,100116.72
2022-10-17T23:30:45.612Z,100111.38
2022-10-17T23:33:13.841Z,100119.25
2022-10-17T23:35:41.286Z,100114.69
2022-10-17T23:38:08.450Z,100119.69
2022-10-17T23:40:35.711Z,100116.53
2022-10-17T23:43:03.734Z,100115.34
2022-10-17T23:45:34.784Z,100124.72
2022-10-17T23:48:05.300Z,100116.88
2022-10-17T23:50:32.316Z,100127.75
2022-10-17T23:52:59.319Z,100125.41
2022-10-17T23:55:26.268Z,100114.72
2022-10-17T23:57:53.469Z,100107.50
